Ammon, Idaho
Current Conditions -  °F | °C
As of 5:18 AM on Thursday 29 Jan 2015 (Local Time) from KIDA Reporting Station
Haze Haze  
Wind Chill: 34°   Ceiling: 3300
Heat Index: 34°   Visibility: 3mi
Dew Point: 33°   Wind: 0mph
Humidity: 96%   Direction: NA
Pressure: 30.45"   Gusts: NA
Location:  43.4284°N, 111.925°W
Report Text: KIDA 291218Z AUTO 00000KT 3SM BR SCT005 OVC033 01/01 A3045 RMK AO2 T00110006
Loading
Personal Weather Stations






























Interactive Weather Map New forecast layout! Learn more

10-Day Weather Forecast

Advertisements
Track Severe Weather on mobile